Terminal Aerodrome Forecast
Issued by NWS Melbourne, FL

Home | Current Version | Previous Version | Text Only | Print | Product List | Glossary On
Versions: 1 2 3 4 5 6 7 8 9 10 11 12 13 14 15 16 17 18 19 20 21 22 23
000
FTUS42 KMLB 120901 AAA
TAFMCO
TAF AMD
KMCO 120901Z 1209/1312 21008KT P6SM FEW250
     FM121500 23009KT P6SM FEW040 SCT250
     FM121700 26017G26KT P6SM SCT050 BKN250
     FM130000 29010KT P6SM SKC
     FM130800 32008KT P6SM SKC=

USA.gov is the U.S. government's official web portal to all federal, state and local government web resources and services.